Time;durP1;ratioP1;P1;durP2;ratioP2;P2;SDS_P1;SDS_P2;PMS_P1;PMS_P2;Temp;Humidity;BMP_temperature;BMP_pressure;BME280_temperature;BME280_humidity;BME280_pressure;Samples;Min_cycle;Max_cycle;Signal;HPM_P1;HPM_P2
2023/05/15 00:01:49;;;;;;;2.70;1.70;;;15.60;59.10;;;;;;5010719;28;20226;-54
2023/05/15 00:04:20;;;;;;;3.38;1.70;;;15.60;59.20;;;;;;5010786;28;20203;-54
2023/05/15 00:06:52;;;;;;;3.83;2.08;;;15.60;59.20;;;;;;5009951;28;20204;-53
2023/05/15 00:09:23;;;;;;;2.42;1.40;;;15.60;59.70;;;;;;5010778;28;20227;-54
2023/05/15 00:11:54;;;;;;;2.33;1.50;;;15.60;59.20;;;;;;5010363;28;20240;-55
2023/05/15 00:14:24;;;;;;;3.20;1.67;;;15.60;59.20;;;;;;5010801;28;20565;-56
2023/05/15 00:16:55;;;;;;;5.00;1.80;;;15.60;59.20;;;;;;5010100;28;20653;-54
2023/05/15 00:19:25;;;;;;;2.67;1.55;;;15.60;59.20;;;;;;5009973;28;20715;-51
2023/05/15 00:21:58;;;;;;;1.85;1.50;;;15.70;59.30;;;;;;5011637;28;20772;-52
2023/05/15 00:24:29;;;;;;;2.10;1.50;;;15.60;59.40;;;;;;5010500;28;20201;-52
2023/05/15 00:27:00;;;;;;;3.58;1.70;;;15.70;59.50;;;;;;5010760;28;20204;-53
2023/05/15 00:29:31;;;;;;;2.90;1.90;;;15.70;59.50;;;;;;5010123;28;20228;-56
2023/05/15 00:32:01;;;;;;;5.03;2.08;;;15.70;59.50;;;;;;5011081;28;20559;-50
2023/05/15 00:34:32;;;;;;;3.30;2.00;;;15.70;59.50;;;;;;5010159;28;20259;-53
2023/05/15 00:37:04;;;;;;;3.95;1.65;;;15.70;59.50;;;;;;5010951;28;20207;-52
2023/05/15 00:39:35;;;;;;;4.75;2.03;;;15.70;59.50;;;;;;5010150;28;20230;-50
2023/05/15 00:42:07;;;;;;;3.72;1.73;;;15.80;59.60;;;;;;5010373;28;20204;-51
2023/05/15 00:44:39;;;;;;;2.42;1.55;;;15.80;59.60;;;;;;5010785;28;20207;-51
2023/05/15 00:47:12;;;;;;;2.03;1.52;;;15.80;59.60;;;;;;5009934;28;20200;-55
2023/05/15 00:49:43;;;;;;;2.58;1.70;;;15.80;59.50;;;;;;5010550;28;20272;-53
2023/05/15 00:52:16;;;;;;;3.47;1.90;;;15.80;59.40;;;;;;5009756;28;20650;-51
2023/05/15 00:54:46;;;;;;;3.60;1.55;;;15.80;59.60;;;;;;4990776;28;20201;-51
2023/05/15 00:57:20;;;;;;;2.40;1.50;;;15.80;59.70;;;;;;4990832;28;20208;-51
2023/05/15 00:59:51;;;;;;;2.28;1.33;;;15.80;59.70;;;;;;5015321;28;20220;-52
2023/05/15 01:02:22;;;;;;;2.00;1.60;;;15.80;59.70;;;;;;5014213;28;20205;-51
2023/05/15 01:04:53;;;;;;;3.28;1.65;;;15.90;59.70;;;;;;5014154;28;20251;-53
2023/05/15 01:07:25;;;;;;;3.20;1.70;;;15.90;59.70;;;;;;5014206;28;20704;-52
2023/05/15 01:09:57;;;;;;;2.38;1.70;;;15.90;60.40;;;;;;5013899;28;20228;-58
2023/05/15 01:12:29;;;;;;;2.80;1.60;;;15.90;59.70;;;;;;5013810;28;20209;-55
2023/05/15 01:15:00;;;;;;;2.90;1.60;;;15.90;59.70;;;;;;5013220;28;20205;-55
2023/05/15 01:17:30;;;;;;;3.15;1.63;;;15.90;59.70;;;;;;5013819;28;20649;-53
2023/05/15 01:20:02;;;;;;;2.75;1.77;;;15.90;59.70;;;;;;5013522;28;20212;-51
2023/05/15 01:22:48;;;;;;;3.15;1.70;;;16.00;59.80;;;;;;5013930;28;20203;-54
2023/05/15 01:25:57;;;;;;;2.42;1.85;;;16.00;59.90;;;;;;5013643;28;20197;-57
2023/05/15 01:28:35;;;;;;;3.55;1.67;;;16.00;59.90;;;;;;5013471;28;20263;-56
2023/05/15 01:31:11;;;;;;;2.90;1.55;;;16.00;59.70;;;;;;5012993;28;20236;-55
2023/05/15 01:33:45;;;;;;;2.78;1.25;;;16.00;59.70;;;;;;5013906;28;20189;-57
2023/05/15 01:36:20;;;;;;;2.22;1.50;;;16.00;59.70;;;;;;5014083;28;20204;-56
2023/05/15 01:38:54;;;;;;;3.13;1.73;;;16.00;59.70;;;;;;5013969;28;20292;-55
2023/05/15 01:41:29;;;;;;;2.90;1.70;;;16.00;59.70;;;;;;5013585;28;20207;-54
2023/05/15 01:44:04;;;;;;;2.97;1.55;;;16.00;59.80;;;;;;5013091;28;20596;-54
2023/05/15 01:46:39;;;;;;;2.22;1.60;;;16.10;59.80;;;;;;5013373;28;20193;-55
2023/05/15 01:49:14;;;;;;;2.10;1.58;;;16.10;59.80;;;;;;5013553;28;20262;-55
2023/05/15 01:51:45;;;;;;;2.67;1.65;;;16.10;59.80;;;;;;5013563;28;20743;-58
2023/05/15 01:54:18;;;;;;;2.03;1.27;;;16.10;59.80;;;;;;5014182;28;20667;-54
2023/05/15 01:56:49;;;;;;;2.22;1.50;;;16.10;59.80;;;;;;5013834;28;20201;-56
2023/05/15 01:59:23;;;;;;;2.38;1.60;;;16.10;59.90;;;;;;5013463;28;20217;-54
2023/05/15 02:01:54;;;;;;;2.15;1.40;;;16.10;60.00;;;;;;5012777;28;20200;-54
2023/05/15 02:04:25;;;;;;;4.63;1.77;;;16.10;60.00;;;;;;5014061;28;20207;-58
2023/05/15 02:06:57;;;;;;;2.97;1.50;;;16.10;60.10;;;;;;5013639;28;20200;-58
2023/05/15 02:09:28;;;;;;;2.85;1.88;;;16.10;60.00;;;;;;5009388;28;20209;-52
2023/05/15 02:12:01;;;;;;;2.45;1.50;;;16.20;60.30;;;;;;5012580;28;20255;-57
2023/05/15 02:14:34;;;;;;;2.60;1.73;;;16.20;60.30;;;;;;5012934;28;20199;-51
2023/05/15 02:17:05;;;;;;;2.65;1.58;;;16.20;60.20;;;;;;4993593;28;20208;-54
2023/05/15 02:19:36;;;;;;;1.90;1.60;;;16.30;60.30;;;;;;5009155;28;20213;-54
2023/05/15 02:22:06;;;;;;;3.10;1.65;;;16.30;60.20;;;;;;5012831;28;20201;-56
2023/05/15 02:24:37;;;;;;;2.65;1.85;;;16.30;60.20;;;;;;5012817;28;20199;-54
2023/05/15 02:27:18;;;;;;;3.40;1.83;;;16.30;60.20;;;;;;5012336;28;20201;-54
2023/05/15 02:30:03;;;;;;;2.35;1.50;;;16.30;60.20;;;;;;5012719;28;20244;-54
2023/05/15 02:32:42;;;;;;;1.77;1.30;;;16.30;60.20;;;;;;5012366;28;20193;-53
2023/05/15 02:35:20;;;;;;;2.70;1.50;;;16.30;60.20;;;;;;5012443;28;20645;-56
2023/05/15 02:37:55;;;;;;;3.35;1.90;;;16.30;60.10;;;;;;5012050;28;20251;-56
2023/05/15 02:40:27;;;;;;;3.30;1.92;;;16.30;60.10;;;;;;5012147;28;20219;-56
2023/05/15 02:42:58;;;;;;;1.70;1.25;;;16.30;60.20;;;;;;5012264;28;20208;-57
2023/05/15 02:45:31;;;;;;;2.97;1.63;;;16.30;60.20;;;;;;5012757;28;20247;-56
2023/05/15 02:48:02;;;;;;;2.90;1.52;;;16.40;60.10;;;;;;5012448;28;20220;-56
2023/05/15 02:50:33;;;;;;;2.95;1.67;;;16.40;60.10;;;;;;5011567;28;20236;-55
2023/05/15 02:53:08;;;;;;;2.45;1.27;;;16.40;60.00;;;;;;5011488;28;20653;-56
2023/05/15 02:55:40;;;;;;;1.90;1.50;;;16.40;60.00;;;;;;5011938;28;20674;-52
2023/05/15 02:58:11;;;;;;;2.47;1.50;;;16.40;60.00;;;;;;5011154;28;20200;-55
2023/05/15 03:00:43;;;;;;;2.63;1.52;;;16.40;60.00;;;;;;5010909;28;20217;-53
2023/05/15 03:03:14;;;;;;;3.63;1.85;;;16.50;60.00;;;;;;5011044;28;20189;-52
2023/05/15 03:05:44;;;;;;;2.35;1.52;;;16.50;60.00;;;;;;5012105;28;20205;-53
2023/05/15 03:08:16;;;;;;;2.25;1.70;;;16.50;60.00;;;;;;5011714;28;20263;-53
2023/05/15 03:10:47;;;;;;;2.20;1.45;;;16.50;59.90;;;;;;5011849;28;20236;-54
2023/05/15 03:13:17;;;;;;;1.80;1.35;;;16.60;59.90;;;;;;5011962;28;20201;-51
2023/05/15 03:15:50;;;;;;;2.10;1.58;;;16.60;59.90;;;;;;5012538;28;20201;-62
2023/05/15 03:18:20;;;;;;;3.10;1.40;;;16.60;60.00;;;;;;5011222;28;20189;-55
2023/05/15 03:20:51;;;;;;;3.17;1.65;;;16.60;60.40;;;;;;5010417;28;20721;-51
2023/05/15 03:23:22;;;;;;;3.65;1.33;;;16.60;60.40;;;;;;5011490;28;20201;-49
2023/05/15 03:25:52;;;;;;;2.38;1.55;;;16.70;60.40;;;;;;5012313;28;20193;-57
2023/05/15 03:28:23;;;;;;;3.45;1.48;;;16.70;60.30;;;;;;5011581;28;20223;-55
2023/05/15 03:30:59;;;;;;;2.97;1.75;;;16.70;60.30;;;;;;5011960;28;20229;-52
2023/05/15 03:33:29;;;;;;;2.40;1.42;;;16.70;60.30;;;;;;5011861;28;20204;-49
2023/05/15 03:36:00;;;;;;;2.55;1.50;;;16.80;60.20;;;;;;5011580;28;20208;-52
2023/05/15 03:38:30;;;;;;;2.88;1.45;;;16.80;60.20;;;;;;5011363;28;20196;-52
2023/05/15 03:41:01;;;;;;;2.13;1.38;;;16.80;60.10;;;;;;5010823;28;20208;-50
2023/05/15 03:43:32;;;;;;;3.20;1.50;;;16.80;60.90;;;;;;5010433;28;20667;-51
2023/05/15 03:46:04;;;;;;;2.42;1.40;;;16.80;60.00;;;;;;5011071;28;20204;-52
2023/05/15 03:48:35;;;;;;;2.15;1.55;;;16.80;60.00;;;;;;5011477;28;20239;-53
2023/05/15 03:51:06;;;;;;;2.08;1.60;;;16.90;60.00;;;;;;5010508;28;20232;-53
2023/05/15 03:53:36;;;;;;;1.83;1.45;;;16.90;59.90;;;;;;5011348;28;20197;-57
2023/05/15 03:56:07;;;;;;;2.85;1.67;;;16.90;59.90;;;;;;5010882;28;20692;-52
2023/05/15 03:58:38;;;;;;;2.28;1.50;;;16.90;59.90;;;;;;5010607;28;20220;-53
2023/05/15 04:01:10;;;;;;;3.38;1.50;;;16.90;59.90;;;;;;5011104;28;20197;-54
2023/05/15 04:03:41;;;;;;;2.13;1.40;;;17.00;59.90;;;;;;5009208;28;20991;-51
2023/05/15 04:06:11;;;;;;;2.20;1.52;;;16.90;59.90;;;;;;5009079;28;20570;-57
2023/05/15 04:08:42;;;;;;;2.42;1.40;;;17.00;59.90;;;;;;5010855;28;20668;-55
2023/05/15 04:11:13;;;;;;;2.50;1.40;;;17.00;59.80;;;;;;5011300;28;20224;-50
2023/05/15 04:13:44;;;;;;;2.63;1.48;;;17.00;59.80;;;;;;5010758;28;20208;-49
2023/05/15 04:16:17;;;;;;;2.47;1.50;;;17.00;59.80;;;;;;5010948;28;20200;-50
2023/05/15 04:18:48;;;;;;;2.17;1.50;;;17.00;59.80;;;;;;5010740;28;20200;-54
2023/05/15 04:21:18;;;;;;;2.03;1.25;;;17.00;59.80;;;;;;5010693;28;20197;-52
2023/05/15 04:23:49;;;;;;;1.27;1.17;;;17.10;60.50;;;;;;5010254;28;20197;-53
2023/05/15 04:26:20;;;;;;;2.90;1.83;;;17.10;59.80;;;;;;5010041;28;20203;-50
2023/05/15 04:28:50;;;;;;;1.75;1.33;;;17.10;60.50;;;;;;5007614;28;20220;-51
2023/05/15 04:31:23;;;;;;;1.73;1.40;;;17.10;59.70;;;;;;5010866;28;20224;-49
2023/05/15 04:33:53;;;;;;;2.03;1.60;;;17.20;60.40;;;;;;5013812;28;20223;-50
2023/05/15 04:36:24;;;;;;;2.22;1.25;;;17.20;59.70;;;;;;4995304;28;20197;-52
2023/05/15 04:38:55;;;;;;;1.92;1.38;;;17.20;59.70;;;;;;5004649;28;20213;-53
2023/05/15 04:41:26;;;;;;;2.67;1.42;;;17.20;59.60;;;;;;5014731;28;20207;-51
2023/05/15 04:43:56;;;;;;;2.25;1.52;;;17.20;59.60;;;;;;5014772;28;20192;-54
2023/05/15 04:46:33;;;;;;;1.40;1.30;;;17.30;59.70;;;;;;5014293;28;20220;-56
2023/05/15 04:49:04;;;;;;;2.30;1.10;;;17.30;59.60;;;;;;5014362;28;20247;-56
2023/05/15 04:51:34;;;;;;;1.65;1.40;;;17.30;59.60;;;;;;5013572;28;20789;-56
2023/05/15 04:54:05;;;;;;;2.40;1.73;;;17.30;59.50;;;;;;5013887;28;20197;-54
2023/05/15 04:56:36;;;;;;;1.98;1.58;;;17.30;59.60;;;;;;5013192;28;20270;-53
2023/05/15 04:59:06;;;;;;;2.63;1.60;;;17.30;59.50;;;;;;5014654;28;20567;-53
2023/05/15 05:01:39;;;;;;;1.70;1.30;;;17.30;59.50;;;;;;5014206;28;20193;-52
2023/05/15 05:04:09;;;;;;;1.95;1.52;;;17.40;59.50;;;;;;5014177;28;20193;-53
2023/05/15 05:06:40;;;;;;;2.55;1.60;;;17.40;59.50;;;;;;5013897;28;20193;-50
2023/05/15 05:09:11;;;;;;;1.25;1.15;;;17.40;59.50;;;;;;5013907;28;20217;-51
2023/05/15 05:11:43;;;;;;;1.33;1.20;;;17.40;59.40;;;;;;5014100;28;20790;-53
2023/05/15 05:14:14;;;;;;;2.20;1.30;;;17.40;59.40;;;;;;5013702;28;20224;-56
2023/05/15 05:16:47;;;;;;;1.80;1.67;;;17.40;59.40;;;;;;5013650;28;20197;-55
2023/05/15 05:19:18;;;;;;;2.72;1.85;;;17.40;59.30;;;;;;5013780;28;20209;-52
2023/05/15 05:21:48;;;;;;;1.70;1.45;;;17.40;59.20;;;;;;5013121;28;20197;-50
2023/05/15 05:24:19;;;;;;;1.73;1.40;;;17.40;59.20;;;;;;5013706;28;20197;-51
2023/05/15 05:26:50;;;;;;;2.55;1.70;;;17.40;59.20;;;;;;5014300;28;20200;-53
2023/05/15 05:29:20;;;;;;;3.42;1.73;;;17.40;59.10;;;;;;5013178;28;20692;-54
2023/05/15 05:31:53;;;;;;;2.13;1.42;;;17.40;59.10;;;;;;5014077;28;20225;-58
2023/05/15 05:34:23;;;;;;;2.47;1.75;;;17.40;59.10;;;;;;5013808;28;20673;-55
2023/05/15 05:36:54;;;;;;;1.90;1.70;;;17.40;59.10;;;;;;5013905;28;20197;-50
2023/05/15 05:39:25;;;;;;;3.25;1.75;;;17.40;59.10;;;;;;5013179;28;20216;-53
2023/05/15 05:41:55;;;;;;;2.78;1.90;;;17.40;59.10;;;;;;5013551;28;20204;-56
2023/05/15 05:44:26;;;;;;;2.65;2.00;;;17.40;59.10;;;;;;5012329;28;20192;-57
2023/05/15 05:46:58;;;;;;;3.03;1.90;;;17.40;59.00;;;;;;5013095;28;20664;-56
2023/05/15 05:49:29;;;;;;;2.08;1.80;;;17.40;59.00;;;;;;5013344;28;20217;-52
2023/05/15 05:52:06;;;;;;;2.63;1.80;;;17.40;58.90;;;;;;5012986;28;20877;-54
2023/05/15 05:54:36;;;;;;;2.47;1.83;;;17.30;58.80;;;;;;5013557;28;20200;-50
2023/05/15 05:57:07;;;;;;;2.50;1.75;;;17.30;58.80;;;;;;5013399;28;20207;-53
2023/05/15 05:59:38;;;;;;;3.30;1.60;;;17.30;58.80;;;;;;5012775;28;20221;-58
2023/05/15 06:02:11;;;;;;;2.55;1.75;;;17.30;58.70;;;;;;5012884;28;20201;-54
2023/05/15 06:04:41;;;;;;;2.15;1.88;;;17.30;58.80;;;;;;5012575;28;20193;-51
2023/05/15 06:07:12;;;;;;;2.20;1.70;;;17.30;58.70;;;;;;5013223;28;20279;-53
2023/05/15 06:09:44;;;;;;;2.95;2.00;;;17.30;58.70;;;;;;5012735;28;20228;-51
2023/05/15 06:12:15;;;;;;;2.20;1.60;;;17.30;58.60;;;;;;5012981;28;20565;-53
2023/05/15 06:14:46;;;;;;;2.88;2.08;;;17.30;58.60;;;;;;5012463;28;20197;-51
2023/05/15 06:17:22;;;;;;;2.38;1.80;;;17.20;58.60;;;;;;5013536;28;20193;-53
2023/05/15 06:19:52;;;;;;;2.65;2.03;;;17.20;58.60;;;;;;5012505;28;20217;-57
2023/05/15 06:22:23;;;;;;;3.45;2.10;;;17.20;58.60;;;;;;5012292;28;20197;-54
2023/05/15 06:24:54;;;;;;;2.75;2.30;;;17.20;58.60;;;;;;5011808;28;20653;-50
2023/05/15 06:27:26;;;;;;;3.55;2.40;;;17.20;58.80;;;;;;5012095;28;20247;-50
2023/05/15 06:29:57;;;;;;;3.80;2.38;;;17.20;58.90;;;;;;5012280;28;20283;-50
2023/05/15 06:32:29;;;;;;;4.05;2.22;;;17.20;58.90;;;;;;5011384;28;20616;-52
2023/05/15 06:35:00;;;;;;;3.28;2.28;;;17.20;58.80;;;;;;5012331;28;20192;-59
2023/05/15 06:37:31;;;;;;;2.90;2.03;;;17.20;58.80;;;;;;5012137;28;20196;-53
2023/05/15 06:40:02;;;;;;;5.47;2.90;;;17.20;58.80;;;;;;5012701;28;20209;-55
2023/05/15 06:42:32;;;;;;;5.50;3.00;;;17.20;59.00;;;;;;5012486;28;20242;-53
2023/05/15 06:45:03;;;;;;;2.60;2.40;;;17.20;59.20;;;;;;5010599;28;20192;-51
2023/05/15 06:47:45;;;;;;;4.30;2.60;;;17.20;59.10;;;;;;4993037;28;20559;-58
2023/05/15 06:50:15;;;;;;;3.22;2.40;;;17.20;59.00;;;;;;5006240;28;20304;-52
2023/05/15 06:52:46;;;;;;;3.45;2.40;;;17.20;58.80;;;;;;5011395;28;20220;-50
2023/05/15 06:55:17;;;;;;;3.58;2.55;;;17.20;58.80;;;;;;5010977;28;20185;-52
2023/05/15 06:57:47;;;;;;;3.47;2.70;;;17.20;58.70;;;;;;5011360;28;20193;-51
2023/05/15 07:00:19;;;;;;;4.00;2.78;;;17.10;58.60;;;;;;5011184;28;20271;-53
2023/05/15 07:02:51;;;;;;;3.55;2.30;;;17.10;58.60;;;;;;5011401;28;20204;-51
2023/05/15 07:05:22;;;;;;;3.78;2.40;;;17.10;58.70;;;;;;5011413;28;20193;-53
2023/05/15 07:07:52;;;;;;;2.60;2.13;;;17.10;58.60;;;;;;5011867;28;20284;-52
2023/05/15 07:10:23;;;;;;;3.15;2.20;;;17.10;58.70;;;;;;5011430;28;20740;-52
2023/05/15 07:12:54;;;;;;;3.85;2.60;;;17.10;58.60;;;;;;5011406;28;20282;-50
2023/05/15 07:15:24;;;;;;;3.05;2.65;;;17.10;58.60;;;;;;5012043;28;20192;-49
2023/05/15 07:17:57;;;;;;;3.05;2.05;;;17.00;58.50;;;;;;5011426;28;20653;-55
2023/05/15 07:20:28;;;;;;;4.15;2.58;;;17.00;58.60;;;;;;5011501;28;20217;-53
2023/05/15 07:22:59;;;;;;;3.22;2.67;;;17.00;58.50;;;;;;5012082;28;20645;-54
2023/05/15 07:25:29;;;;;;;2.97;2.38;;;17.00;58.60;;;;;;5011319;28;20193;-56
2023/05/15 07:28:00;;;;;;;4.38;2.85;;;16.90;58.50;;;;;;5010855;28;20280;-52
2023/05/15 07:30:31;;;;;;;3.67;2.38;;;16.90;58.50;;;;;;5011877;28;20219;-52
2023/05/15 07:33:03;;;;;;;3.15;2.17;;;17.00;58.50;;;;;;5011137;28;20221;-51
2023/05/15 07:35:34;;;;;;;3.25;2.53;;;16.90;58.40;;;;;;5011917;28;20200;-50
2023/05/15 07:38:04;;;;;;;3.05;2.40;;;16.90;58.40;;;;;;5012276;28;20209;-51
2023/05/15 07:40:35;;;;;;;3.88;2.40;;;16.90;58.40;;;;;;5011208;28;20212;-54
2023/05/15 07:43:06;;;;;;;3.53;2.28;;;16.90;58.40;;;;;;5011122;28;20201;-54
2023/05/15 07:45:36;;;;;;;3.53;2.25;;;16.90;58.40;;;;;;5010888;28;20200;-54
2023/05/15 07:48:19;;;;;;;3.90;2.50;;;16.90;58.40;;;;;;5011647;28;20217;-56
2023/05/15 07:50:52;;;;;;;2.85;2.42;;;16.80;58.40;;;;;;5010876;28;20246;-53
2023/05/15 07:53:23;;;;;;;4.13;2.25;;;16.80;58.30;;;;;;5010858;28;20316;-55
2023/05/15 07:55:53;;;;;;;3.22;2.35;;;16.80;58.30;;;;;;5010718;28;20193;-57
2023/05/15 07:58:24;;;;;;;3.72;2.60;;;16.80;58.30;;;;;;5011634;28;20205;-54
2023/05/15 08:00:55;;;;;;;4.35;2.47;;;16.80;58.30;;;;;;5011503;28;20617;-54
2023/05/15 08:03:28;;;;;;;2.55;2.30;;;16.70;58.20;;;;;;5011494;28;20203;-53
2023/05/15 08:05:58;;;;;;;3.70;2.58;;;16.70;58.20;;;;;;5010737;28;20192;-51
2023/05/15 08:08:29;;;;;;;3.38;2.47;;;16.70;58.30;;;;;;5010322;28;20207;-58
2023/05/15 08:11:00;;;;;;;3.30;2.53;;;16.70;58.30;;;;;;5007924;28;20189;-54
2023/05/15 08:13:30;;;;;;;3.15;2.70;;;16.70;58.30;;;;;;5010681;28;20724;-52
2023/05/15 08:16:01;;;;;;;3.65;2.35;;;16.70;58.90;;;;;;5010665;28;20192;-56
2023/05/15 08:18:34;;;;;;;3.97;2.83;;;16.60;58.20;;;;;;5010448;28;20676;-51
2023/05/15 08:21:04;;;;;;;2.97;2.47;;;16.60;58.20;;;;;;5009909;28;20200;-56
2023/05/15 08:23:35;;;;;;;3.53;2.40;;;16.60;58.20;;;;;;5010317;28;20189;-55
2023/05/15 08:26:05;;;;;;;3.45;2.53;;;16.60;58.20;;;;;;5009600;28;20205;-55
2023/05/15 08:28:36;;;;;;;3.80;2.42;;;16.60;58.20;;;;;;5010672;28;20204;-55
2023/05/15 08:31:07;;;;;;;2.85;2.42;;;16.60;58.20;;;;;;5011081;28;20196;-55
2023/05/15 08:33:39;;;;;;;2.95;2.40;;;16.60;58.20;;;;;;5011071;28;20254;-58
2023/05/15 08:36:10;;;;;;;3.92;2.45;;;16.50;58.10;;;;;;5011393;28;20208;-53
2023/05/15 08:38:41;;;;;;;3.95;2.53;;;16.50;58.10;;;;;;5011351;28;20197;-53
2023/05/15 08:41:23;;;;;;;3.47;2.67;;;16.50;58.10;;;;;;5010752;28;20703;-53
2023/05/15 08:43:57;;;;;;;3.65;2.22;;;16.50;58.10;;;;;;5011367;28;20209;-57
2023/05/15 08:46:28;;;;;;;3.70;2.53;;;16.50;58.10;;;;;;5010663;28;20687;-55
2023/05/15 08:49:03;;;;;;;2.97;2.42;;;16.50;58.10;;;;;;5011105;28;20224;-60
2023/05/15 08:51:33;;;;;;;4.25;2.50;;;16.40;58.10;;;;;;5011023;28;20196;-57
2023/05/15 08:54:05;;;;;;;2.80;2.20;;;16.40;58.10;;;;;;5011170;28;20239;-60
2023/05/15 08:56:35;;;;;;;4.88;2.72;;;16.40;58.10;;;;;;5010728;28;20220;-57
2023/05/15 08:59:06;;;;;;;2.97;2.33;;;16.40;58.10;;;;;;5011061;28;20225;-56
2023/05/15 09:01:37;;;;;;;3.13;2.47;;;16.40;58.00;;;;;;5010492;28;20204;-56
2023/05/15 09:04:10;;;;;;;3.72;2.50;;;16.40;58.00;;;;;;5010574;28;20200;-56
2023/05/15 09:06:42;;;;;;;2.72;2.05;;;16.30;58.00;;;;;;5011073;28;20208;-54
2023/05/15 09:09:13;;;;;;;3.45;2.40;;;16.30;58.00;;;;;;5009390;28;20248;-55
2023/05/15 09:11:46;;;;;;;2.92;2.35;;;16.30;57.90;;;;;;5009965;28;20292;-49
2023/05/15 09:14:17;;;;;;;3.20;2.60;;;16.30;58.00;;;;;;5010134;28;20684;-54
2023/05/15 09:16:49;;;;;;;6.07;5.38;;;16.30;57.90;;;;;;5010100;28;20201;-48
2023/05/15 09:19:22;;;;;;;7.75;5.88;;;16.30;56.80;;;;;;5012114;28;20694;-54
2023/05/15 09:21:53;;;;;;;6.22;4.80;;;16.20;56.30;;;;;;5013976;28;20189;-49
2023/05/15 09:24:25;;;;;;;6.22;4.47;;;16.20;56.50;;;;;;4994781;28;20237;-48
2023/05/15 09:27:05;;;;;;;6.82;4.88;;;16.20;56.70;;;;;;4994582;28;20692;-50
2023/05/15 09:29:37;;;;;;;7.03;4.10;;;16.10;56.90;;;;;;4994374;28;20689;-51
2023/05/15 09:32:09;;;;;;;5.18;4.47;;;16.10;57.00;;;;;;4994030;28;20201;-52
2023/05/15 09:34:43;;;;;;;7.75;4.85;;;16.10;57.10;;;;;;4994273;28;20290;-48
2023/05/15 09:37:29;;;;;;;5.28;4.40;;;16.10;57.20;;;;;;4994218;28;20193;-52
2023/05/15 09:40:10;;;;;;;5.95;4.25;;;16.10;57.30;;;;;;4994310;28;20221;-48
2023/05/15 09:42:41;;;;;;;5.90;4.47;;;16.10;57.30;;;;;;4999078;28;20237;-51
2023/05/15 09:45:19;;;;;;;5.47;3.83;;;16.10;57.30;;;;;;5014126;28;20197;-51
2023/05/15 09:48:01;;;;;;;6.75;4.13;;;16.00;57.30;;;;;;5014360;28;20680;-51
2023/05/15 09:50:38;;;;;;;5.85;3.70;;;16.00;57.30;;;;;;5013612;28;20256;-52
2023/05/15 09:53:12;;;;;;;5.30;3.97;;;16.00;57.30;;;;;;5013455;28;20232;-52
2023/05/15 09:55:44;;;;;;;5.22;4.30;;;16.00;57.30;;;;;;5013159;28;20193;-50
2023/05/15 09:58:15;;;;;;;5.55;3.97;;;16.00;57.30;;;;;;5009947;28;20193;-47
2023/05/15 10:00:47;;;;;;;5.97;4.38;;;16.00;57.30;;;;;;5013552;28;20232;-52
2023/05/15 10:03:19;;;;;;;5.72;3.88;;;15.90;57.30;;;;;;5013369;28;20201;-52
2023/05/15 10:06:00;;;;;;;4.72;4.00;;;15.90;57.30;;;;;;5012629;28;20251;-49
2023/05/15 10:08:31;;;;;;;5.05;3.70;;;15.90;57.30;;;;;;5011653;28;20188;-53
2023/05/15 10:11:03;;;;;;;4.13;3.65;;;15.90;57.30;;;;;;5013533;28;20192;-52
2023/05/15 10:13:35;;;;;;;5.40;4.15;;;15.90;57.30;;;;;;5012578;28;20865;-51
2023/05/15 10:16:07;;;;;;;5.68;4.05;;;15.90;57.70;;;;;;5012476;28;20200;-51
2023/05/15 10:18:41;;;;;;;6.32;3.92;;;15.90;57.30;;;;;;5012094;28;20196;-52
2023/05/15 10:21:17;;;;;;;5.10;3.83;;;15.90;57.40;;;;;;5013039;28;20572;-48
2023/05/15 10:23:49;;;;;;;4.97;3.55;;;15.90;57.40;;;;;;5012490;28;20206;-51
2023/05/15 10:26:30;;;;;;;5.07;3.50;;;15.80;57.30;;;;;;5012774;28;20193;-50
2023/05/15 10:29:02;;;;;;;4.80;3.70;;;15.80;57.30;;;;;;5013201;28;20584;-52
2023/05/15 10:31:34;;;;;;;5.47;3.53;;;15.80;57.30;;;;;;5012839;28;20707;-49
2023/05/15 10:34:05;;;;;;;4.68;3.78;;;15.80;57.30;;;;;;5012778;28;20232;-50
2023/05/15 10:36:38;;;;;;;4.22;3.50;;;15.80;57.30;;;;;;5012350;28;20266;-50
2023/05/15 10:39:10;;;;;;;5.97;3.78;;;15.80;57.30;;;;;;5012348;28;20296;-52
2023/05/15 10:41:41;;;;;;;4.72;3.70;;;15.80;57.30;;;;;;5011588;28;20201;-52
2023/05/15 10:44:13;;;;;;;3.92;3.08;;;15.80;57.30;;;;;;5011267;28;20200;-49
2023/05/15 10:46:43;;;;;;;4.30;2.95;;;15.80;57.30;;;;;;5012338;28;20208;-51
2023/05/15 10:49:14;;;;;;;4.03;3.20;;;15.70;57.30;;;;;;5012511;28;20232;-48
2023/05/15 10:51:47;;;;;;;4.15;2.90;;;15.70;57.30;;;;;;5012232;28;20220;-55
2023/05/15 10:54:18;;;;;;;4.25;3.53;;;15.70;57.30;;;;;;5011451;28;20634;-52
2023/05/15 10:56:48;;;;;;;4.65;3.22;;;15.70;57.40;;;;;;5011211;28;20232;-52
2023/05/15 10:59:19;;;;;;;3.75;3.03;;;15.70;57.30;;;;;;5011615;28;20700;-52
2023/05/15 11:01:50;;;;;;;3.90;3.33;;;15.70;57.30;;;;;;5011567;28;20196;-50
2023/05/15 11:04:25;;;;;;;4.15;2.72;;;15.70;57.30;;;;;;5011748;28;20201;-52
2023/05/15 11:07:15;;;;;;;4.43;2.67;;;15.70;57.40;;;;;;5012221;28;20232;-54
2023/05/15 11:09:45;;;;;;;4.13;2.65;;;15.70;57.30;;;;;;5011795;28;20237;-53
2023/05/15 11:12:16;;;;;;;3.22;2.70;;;15.60;57.30;;;;;;5012119;28;20203;-52
2023/05/15 11:15:17;;;;;;;3.42;2.90;;;15.60;57.30;;;;;;5011918;28;20224;-48
2023/05/15 11:18:05;;;;;;;3.38;3.08;;;15.60;57.30;;;;;;5011888;28;20196;-48
2023/05/15 11:20:39;;;;;;;3.67;3.08;;;15.60;57.30;;;;;;5011219;28;20300;-59
2023/05/15 11:23:12;;;;;;;3.25;2.75;;;15.60;57.20;;;;;;5010998;28;20192;-53
2023/05/15 11:25:42;;;;;;;4.55;2.80;;;15.60;57.30;;;;;;5011748;28;20197;-56
2023/05/15 11:28:24;;;;;;;3.67;2.38;;;15.60;57.30;;;;;;5011116;28;20219;-52
2023/05/15 11:31:02;;;;;;;3.58;2.50;;;15.50;57.30;;;;;;5011904;28;20701;-55
2023/05/15 11:33:33;;;;;;;4.03;2.63;;;15.60;57.30;;;;;;5010620;28;20228;-54
2023/05/15 11:36:06;;;;;;;3.45;2.85;;;15.60;57.30;;;;;;5011144;28;20649;-52
2023/05/15 11:38:42;;;;;;;2.70;2.17;;;15.50;57.30;;;;;;5010732;28;20200;-56
2023/05/15 11:41:28;;;;;;;3.00;2.60;;;15.50;57.30;;;;;;5010666;28;20197;-57
2023/05/15 11:43:59;;;;;;;3.70;3.00;;;15.50;57.30;;;;;;5011038;28;20304;-50
2023/05/15 11:46:31;;;;;;;2.92;2.38;;;15.50;57.30;;;;;;5010583;28;20559;-54
2023/05/15 11:49:02;;;;;;;3.72;2.92;;;15.50;57.30;;;;;;5011442;28;20221;-55
2023/05/15 11:51:33;;;;;;;4.25;2.72;;;15.50;57.30;;;;;;5009304;28;20193;-53
2023/05/15 11:54:07;;;;;;;3.45;2.60;;;15.50;57.30;;;;;;5011671;28;20224;-53
2023/05/15 11:56:43;;;;;;;2.80;2.33;;;15.50;57.30;;;;;;5010492;28;20684;-59
2023/05/15 11:59:15;;;;;;;2.92;2.63;;;15.50;57.30;;;;;;5010187;28;20214;-50
2023/05/15 12:05:07;;;;;;;3.17;2.38;;;15.50;57.30;;;;;;5010338;28;20196;-48
2023/05/15 12:07:40;;;;;;;3.25;2.28;;;15.40;57.20;;;;;;5010317;28;20582;-48
2023/05/15 12:10:14;;;;;;;2.75;2.47;;;15.40;57.30;;;;;;5010187;28;20721;-53
2023/05/15 12:12:47;;;;;;;2.90;2.33;;;15.40;57.20;;;;;;5009865;28;20200;-51
2023/05/15 12:15:18;;;;;;;3.17;2.42;;;15.40;57.20;;;;;;5010124;28;20661;-51
2023/05/15 12:17:50;;;;;;;2.80;2.20;;;15.40;57.20;;;;;;5007080;28;20203;-50
2023/05/15 12:20:21;;;;;;;2.80;2.10;;;15.40;57.20;;;;;;5010143;28;20267;-51
2023/05/15 12:22:52;;;;;;;2.38;1.88;;;15.40;57.20;;;;;;5010218;28;20192;-49
2023/05/15 12:25:24;;;;;;;3.08;2.30;;;15.40;57.20;;;;;;5010044;28;20193;-50
2023/05/15 12:27:55;;;;;;;2.58;1.98;;;15.40;57.20;;;;;;5008396;28;20189;-52
2023/05/15 12:30:26;;;;;;;3.05;2.22;;;15.40;57.10;;;;;;5010182;28;20208;-51
2023/05/15 12:33:01;;;;;;;2.17;1.98;;;15.40;57.10;;;;;;5010018;28;20207;-50
2023/05/15 12:35:33;;;;;;;3.15;1.90;;;15.40;57.20;;;;;;5008212;28;20201;-52
2023/05/15 12:38:05;;;;;;;2.88;2.20;;;15.30;57.10;;;;;;5010199;28;20262;-50
2023/05/15 12:40:39;;;;;;;2.75;2.20;;;15.40;57.20;;;;;;5008230;28;20657;-52
2023/05/15 12:43:10;;;;;;;3.03;2.25;;;15.30;57.10;;;;;;5009702;28;20196;-52
2023/05/15 12:45:41;;;;;;;2.10;1.90;;;15.30;57.10;;;;;;5009266;28;20659;-52
2023/05/15 12:48:17;;;;;;;2.63;2.05;;;15.30;57.10;;;;;;5007782;28;20196;-52
2023/05/15 12:50:48;;;;;;;3.28;1.95;;;15.30;57.10;;;;;;5010790;28;20216;-52
2023/05/15 12:53:19;;;;;;;2.33;1.90;;;15.30;57.10;;;;;;5012494;28;20283;-50
2023/05/15 12:55:52;;;;;;;2.53;1.98;;;15.30;57.10;;;;;;5014624;28;20203;-51
2023/05/15 12:58:23;;;;;;;2.50;1.98;;;15.30;57.10;;;;;;5014438;28;20200;-50
2023/05/15 13:00:55;;;;;;;2.00;1.80;;;15.30;57.10;;;;;;5014724;28;20228;-52
2023/05/15 13:03:27;;;;;;;2.05;1.85;;;15.30;57.10;;;;;;5015144;28;20204;-53
2023/05/15 13:05:58;;;;;;;2.25;2.03;;;15.30;57.10;;;;;;5015033;28;20580;-53
2023/05/15 13:08:28;;;;;;;2.20;1.90;;;15.30;57.10;;;;;;5014717;28;20204;-50
2023/05/15 13:11:02;;;;;;;3.65;2.28;;;15.30;57.00;;;;;;5014881;28;20204;-50
2023/05/15 13:13:48;;;;;;;2.17;1.88;;;15.20;57.00;;;;;;5014759;28;20280;-48
2023/05/15 13:16:23;;;;;;;2.10;1.80;;;15.20;57.00;;;;;;5014908;28;20200;-55
2023/05/15 13:18:54;;;;;;;3.70;2.25;;;15.20;57.00;;;;;;5014843;28;20216;-48